CMA CGM Tosca — FMEL — position and weather

sailwx.info

Track history (hours):
 
Tides and Currents Weather Stations Pressure Air Temp Water Temp Dewpoint Dewpoint Depression Visibility Wind Speed Wind Dir Waves Ship Positions

CMA CGM Tosca

Last reported at 2014-Aug-06 12:32 UTC. Time now 2014-Aug-29 14:23 UTC.
Position S 34°28' E 018°21'.
Warning: this ship's position is 23 days out of date.

Length 334 m; draft 12.9 m.

Type: Cargo ship. MMSI: 228335900.

Date/timePositionNaut miles runAvg speedWind from/ knotsBaromVisibWave heightAir tempDewpointWater temp
2014-Aug-06 12:32S 34°28' E 018°21'1515.8
2014-Aug-06 11:33S 34°31' E 018°39'1615.5
2014-Aug-06 10:33S 34°38' E 018°55'1915.3
2014-Aug-06 09:18S 34°48' E 019°15'12315.8
2014-Aug-06 01:32S 34°51' E 021°45'15016.1
2014-Aug-05 16:16S 34°25' E 024°44'1215.2
2014-Aug-05 15:30S 34°22' E 024°58'1614.9
2014-Aug-05 14:28S 34°18' E 025°16'1415.0
2014-Aug-05 13:31S 34°14' E 025°32'1515.4
2014-Aug-05 12:33S 34°10' E 025°50'22917.6
2014-Aug-04 23:32S 32°30' E 029°56'2218.6
2014-Aug-04 22:21S 32°20' E 030°19'2219.2
2014-Aug-04 21:12S 32°10' E 030°43'9919.5
2014-Aug-04 16:06S 31°20' E 032°24'6217.0
2014-Aug-04 12:27S 30°53' E 033°29'1516.7
2014-Aug-04 11:32S 30°47' E 033°45'1716.9
2014-Aug-04 10:32S 30°40' E 034°03'  
Track history (hours):
 
Tides and Currents Weather Stations Pressure Air Temp Water Temp Dewpoint Dewpoint Depression Visibility Wind Speed Wind Dir Waves Ship Positions

CMA CGM Tosca

Last reported at 2014-Aug-06 12:32 UTC. Time now 2014-Aug-29 14:23 UTC.
Position S 34°28' E 018°21'.
Warning: this ship's position is 23 days out of date.

Length 334 m; draft 12.9 m.

Type: Cargo ship. MMSI: 228335900.

Date/timePositionNaut miles runAvg speedWind from/ knotsBaromVisibWave heightAir tempDewpointWater temp
2014-Aug-06 12:32S 34°28' E 018°21'1515.8
2014-Aug-06 11:33S 34°31' E 018°39'1615.5
2014-Aug-06 10:33S 34°38' E 018°55'1915.3
2014-Aug-06 09:18S 34°48' E 019°15'12315.8
2014-Aug-06 01:32S 34°51' E 021°45'15016.1
2014-Aug-05 16:16S 34°25' E 024°44'1215.2
2014-Aug-05 15:30S 34°22' E 024°58'1614.9
2014-Aug-05 14:28S 34°18' E 025°16'1415.0
2014-Aug-05 13:31S 34°14' E 025°32'1515.4
2014-Aug-05 12:33S 34°10' E 025°50'22917.6
2014-Aug-04 23:32S 32°30' E 029°56'2218.6
2014-Aug-04 22:21S 32°20' E 030°19'2219.2
2014-Aug-04 21:12S 32°10' E 030°43'9919.5
2014-Aug-04 16:06S 31°20' E 032°24'6217.0
2014-Aug-04 12:27S 30°53' E 033°29'1516.7
2014-Aug-04 11:32S 30°47' E 033°45'1716.9
2014-Aug-04 10:32S 30°40' E 034°03'  

Dump ship's entire track history